createdAt,value
2019-05-26T00:02:05.636Z,951.2
2019-05-26T00:05:11.985Z,951.2
2019-05-26T00:08:18.253Z,951.2
2019-05-26T00:11:24.390Z,951.2
2019-05-26T00:14:30.661Z,951.2
2019-05-26T00:17:36.822Z,951.2
2019-05-26T00:20:43.100Z,951.2
2019-05-26T00:23:49.355Z,951.2
2019-05-26T00:26:55.628Z,951.2
2019-05-26T00:30:01.748Z,951.2
2019-05-26T00:33:07.892Z,951.2
2019-05-26T00:36:14.117Z,951.2
2019-05-26T00:39:20.396Z,951.3
2019-05-26T00:42:26.504Z,951.3
2019-05-26T00:45:32.712Z,951.1
2019-05-26T00:48:41.876Z,951.2
2019-05-26T00:51:48.120Z,951.2
2019-05-26T00:54:54.378Z,951.2
2019-05-26T00:58:00.655Z,951.2
2019-05-26T01:01:06.914Z,951.3
2019-05-26T01:04:13.034Z,951.3
2019-05-26T01:07:19.362Z,951.4
2019-05-26T01:10:25.653Z,951.2
2019-05-26T01:13:31.878Z,951.3
2019-05-26T01:16:38.177Z,951.3
2019-05-26T01:19:44.385Z,951.3
2019-05-26T01:22:53.675Z,951.3
2019-05-26T01:26:00.026Z,951.4
2019-05-26T01:29:06.408Z,951.5
2019-05-26T01:32:12.778Z,951.5
2019-05-26T01:35:18.928Z,951.5
2019-05-26T01:38:27.977Z,951.5
2019-05-26T01:41:34.111Z,951.5
2019-05-26T01:44:40.370Z,951.4
2019-05-26T01:47:46.657Z,951.4
2019-05-26T01:50:52.794Z,951.4
2019-05-26T01:53:58.967Z,951.3
2019-05-26T01:57:05.093Z,951.3
2019-05-26T02:00:11.298Z,951.3
2019-05-26T02:03:17.472Z,951.2
2019-05-26T02:06:23.691Z,951.3
2019-05-26T02:09:29.993Z,951.2
2019-05-26T02:12:36.165Z,951.3
2019-05-26T02:15:42.422Z,951.3
2019-05-26T02:18:48.616Z,951.3
2019-05-26T02:21:54.884Z,951.2
2019-05-26T02:25:00.976Z,951.3
2019-05-26T02:28:09.751Z,951.3
2019-05-26T02:31:16.021Z,951.3
2019-05-26T02:34:22.146Z,951.3
2019-05-26T02:37:28.443Z,951.3
2019-05-26T02:40:34.603Z,951.3
2019-05-26T02:43:41.018Z,951.3
2019-05-26T02:46:47.246Z,951.4
2019-05-26T02:49:56.308Z,951.4
2019-05-26T02:53:02.544Z,951.4
2019-05-26T02:56:08.707Z,951.4
2019-05-26T02:59:14.831Z,951.4
2019-05-26T03:02:21.141Z,951.3
2019-05-26T03:05:27.543Z,951.3
2019-05-26T03:08:33.918Z,951.3
2019-05-26T03:11:40.238Z,951.3
2019-05-26T03:14:46.368Z,951.4
2019-05-26T03:17:52.573Z,951.4
2019-05-26T03:20:58.729Z,951.4
2019-05-26T03:24:05.071Z,951.4
2019-05-26T03:27:11.366Z,951.4
2019-05-26T03:30:17.691Z,951.4
2019-05-26T03:33:23.905Z,951.4
2019-05-26T03:36:30.063Z,951.4
2019-05-26T03:39:47.289Z,951.4
2019-05-26T03:42:53.547Z,951.5
2019-05-26T03:45:59.770Z,951.5
2019-05-26T03:49:05.956Z,951.5
2019-05-26T03:52:12.143Z,951.5
2019-05-26T03:55:18.353Z,951.5
2019-05-26T03:58:24.704Z,951.5
2019-05-26T04:01:31.158Z,951.6
2019-05-26T04:04:37.282Z,951.5
2019-05-26T04:07:43.624Z,951.6
2019-05-26T04:10:49.893Z,951.6
2019-05-26T04:13:56.107Z,951.7
2019-05-26T04:17:02.323Z,951.7
2019-05-26T04:20:08.595Z,951.7
2019-05-26T04:23:14.922Z,951.7
2019-05-26T04:26:21.231Z,951.7
2019-05-26T04:29:27.394Z,951.7
2019-05-26T04:32:33.707Z,951.6
2019-05-26T04:35:40.004Z,951.7
2019-05-26T04:38:46.245Z,951.7
2019-05-26T04:41:52.453Z,951.7
2019-05-26T04:44:58.671Z,951.7
2019-05-26T04:48:04.833Z,951.7
2019-05-26T04:51:11.101Z,951.7
2019-05-26T04:54:17.339Z,951.7
2019-05-26T04:57:23.531Z,951.6
2019-05-26T05:00:29.697Z,951.6
2019-05-26T05:03:35.858Z,951.7
2019-05-26T05:06:42.420Z,951.7
2019-05-26T05:09:51.416Z,951.7
2019-05-26T05:12:57.626Z,951.7
2019-05-26T05:16:04.079Z,951.7
2019-05-26T05:19:10.283Z,951.7
2019-05-26T05:22:16.390Z,951.8
2019-05-26T05:25:22.799Z,951.8
2019-05-26T05:28:28.974Z,951.7
2019-05-26T05:31:35.136Z,951.6
2019-05-26T05:34:41.403Z,951.6
2019-05-26T05:37:47.663Z,951.6
2019-05-26T05:41:01.155Z,951.6
2019-05-26T05:44:07.339Z,951.6
2019-05-26T05:47:13.624Z,951.6
2019-05-26T05:50:19.893Z,951.7
2019-05-26T05:53:26.165Z,951.6
2019-05-26T05:56:32.285Z,951.6
2019-05-26T05:59:38.491Z,951.7
2019-05-26T06:02:44.754Z,951.7
2019-05-26T06:05:50.986Z,951.7
2019-05-26T06:08:57.190Z,951.8
2019-05-26T06:12:03.324Z,951.7
2019-05-26T06:15:09.615Z,951.6
2019-05-26T06:18:17.088Z,951.7
2019-05-26T06:21:23.270Z,951.7
2019-05-26T06:24:29.410Z,951.7
2019-05-26T06:27:35.701Z,951.7
2019-05-26T06:30:41.837Z,951.7
2019-05-26T06:33:48.134Z,951.6
2019-05-26T06:36:54.349Z,951.6
2019-05-26T06:40:00.562Z,951.6
2019-05-26T06:43:06.703Z,951.6
2019-05-26T06:46:12.943Z,951.6
2019-05-26T06:49:19.158Z,951.6
2019-05-26T06:52:25.425Z,951.5
2019-05-26T06:55:31.570Z,951.6
2019-05-26T06:58:37.803Z,951.7
2019-05-26T07:01:44.019Z,951.6
2019-05-26T07:04:50.182Z,951.7
2019-05-26T07:07:56.449Z,951.6
2019-05-26T07:11:02.716Z,951.7
2019-05-26T07:14:08.915Z,951.8
2019-05-26T07:17:15.147Z,951.7
2019-05-26T07:20:25.616Z,951.7
2019-05-26T07:23:31.826Z,951.7
2019-05-26T07:26:38.042Z,951.7
2019-05-26T07:29:44.309Z,951.7
2019-05-26T07:32:50.446Z,951.6
2019-05-26T07:35:56.855Z,951.6
2019-05-26T07:39:02.978Z,951.6
2019-05-26T07:42:12.092Z,951.6
2019-05-26T07:45:18.425Z,951.6
2019-05-26T07:48:24.636Z,951.6
2019-05-26T07:51:30.853Z,951.6
2019-05-26T07:54:37.119Z,951.6
2019-05-26T07:57:43.302Z,951.7
2019-05-26T08:00:49.543Z,951.7
2019-05-26T08:03:55.905Z,951.6
2019-05-26T08:07:02.111Z,951.6
2019-05-26T08:10:08.492Z,951.6
2019-05-26T08:13:14.720Z,951.6
2019-05-26T08:16:20.972Z,951.6
2019-05-26T08:19:27.112Z,951.7
2019-05-26T08:22:33.300Z,951.6
2019-05-26T08:25:39.605Z,951.7
2019-05-26T08:28:45.887Z,951.6
2019-05-26T08:31:52.099Z,951.6
2019-05-26T08:34:58.269Z,951.6
2019-05-26T08:38:07.208Z,951.6
2019-05-26T08:41:13.356Z,951.4
2019-05-26T08:44:19.547Z,951.4
2019-05-26T08:47:25.788Z,951.5
2019-05-26T08:50:35.435Z,951.4
2019-05-26T08:53:44.157Z,951.4
2019-05-26T08:56:50.308Z,951.4
2019-05-26T08:59:56.634Z,951.4
2019-05-26T09:03:02.771Z,951.3
2019-05-26T09:06:09.249Z,951.4
2019-05-26T09:09:15.492Z,951.3
2019-05-26T09:12:21.626Z,951.4
2019-05-26T09:15:27.932Z,951.4
2019-05-26T09:18:34.200Z,951.4
2019-05-26T09:21:40.365Z,951.4
2019-05-26T09:24:46.489Z,951.4
2019-05-26T09:27:52.699Z,951.4
2019-05-26T09:30:58.858Z,951.4
2019-05-26T09:34:04.990Z,951.4
2019-05-26T09:37:11.287Z,951.3
2019-05-26T09:40:17.417Z,951.3
2019-05-26T09:43:23.716Z,951.2
2019-05-26T09:46:29.872Z,951.3
2019-05-26T09:49:36.010Z,951.3
2019-05-26T09:52:42.199Z,951.2
2019-05-26T09:55:48.345Z,951.2
2019-05-26T09:58:54.529Z,951.1
2019-05-26T10:02:01.019Z,951
2019-05-26T10:05:07.314Z,951.1
2019-05-26T10:08:13.446Z,951.1
2019-05-26T10:11:19.606Z,951
2019-05-26T10:14:25.977Z,950.9
2019-05-26T10:17:32.127Z,951
2019-05-26T10:20:38.396Z,950.9
2019-05-26T10:23:44.662Z,950.9
2019-05-26T10:26:50.827Z,950.9
2019-05-26T10:29:57.094Z,950.9
2019-05-26T10:33:03.230Z,951
2019-05-26T10:36:09.533Z,950.9
2019-05-26T10:39:15.804Z,950.9
2019-05-26T10:42:21.922Z,950.8
2019-05-26T10:45:28.173Z,950.8
2019-05-26T10:48:38.600Z,950.8
2019-05-26T10:51:44.760Z,950.8
2019-05-26T10:54:51.022Z,950.8
2019-05-26T10:57:57.169Z,950.8
2019-05-26T11:01:03.649Z,950.7
2019-05-26T11:04:09.923Z,950.7
2019-05-26T11:07:16.196Z,950.7
2019-05-26T11:10:22.322Z,950.7
2019-05-26T11:13:28.626Z,950.6
2019-05-26T11:16:34.762Z,950.7
2019-05-26T11:19:40.945Z,950.6
2019-05-26T11:22:47.120Z,950.6
2019-05-26T11:25:53.238Z,950.6
2019-05-26T11:28:59.437Z,950.6
2019-05-26T11:32:05.598Z,950.5
2019-05-26T11:35:11.872Z,950.5
2019-05-26T11:38:18.038Z,950.5
2019-05-26T11:41:24.307Z,950.5
2019-05-26T11:44:30.472Z,950.5
2019-05-26T11:47:36.626Z,950.5
2019-05-26T11:50:42.757Z,950.4
2019-05-26T11:53:48.960Z,950.4
2019-05-26T11:56:55.126Z,950.4
2019-05-26T12:00:01.586Z,950.4
2019-05-26T12:03:08.693Z,950.4
2019-05-26T12:06:14.881Z,950.4
2019-05-26T12:09:21.128Z,950.4
2019-05-26T12:12:27.249Z,950.4
2019-05-26T12:15:33.545Z,950.4
2019-05-26T12:18:39.812Z,950.4
2019-05-26T12:21:45.936Z,950.3
2019-05-26T12:24:52.162Z,950.4
2019-05-26T12:27:58.307Z,950.4
2019-05-26T12:31:04.468Z,950.3
2019-05-26T12:34:10.656Z,950.2
2019-05-26T12:37:16.899Z,950.3
2019-05-26T12:40:23.023Z,950.3
2019-05-26T12:43:29.249Z,950.2
2019-05-26T12:46:35.485Z,950.1
2019-05-26T12:49:41.666Z,950.1
2019-05-26T12:52:47.842Z,950.1
2019-05-26T12:55:53.945Z,950.1
2019-05-26T12:59:00.142Z,950
2019-05-26T13:02:06.457Z,950
2019-05-26T13:05:12.724Z,950
2019-05-26T13:08:19.195Z,949.9
2019-05-26T13:11:25.429Z,949.9
2019-05-26T13:14:31.592Z,949.9
2019-05-26T13:17:37.843Z,949.8
2019-05-26T13:20:43.974Z,949.8
2019-05-26T13:23:50.289Z,949.9
2019-05-26T13:26:56.552Z,949.9
2019-05-26T13:30:02.818Z,949.9
2019-05-26T13:33:08.948Z,949.8
2019-05-26T13:36:15.150Z,949.9
2019-05-26T13:39:21.308Z,949.9
2019-05-26T13:42:27.581Z,949.8
2019-05-26T13:45:35.284Z,949.7
2019-05-26T13:48:41.494Z,949.7
2019-05-26T13:51:51.571Z,949.8
2019-05-26T13:54:57.760Z,949.7
2019-05-26T13:58:04.026Z,949.7
2019-05-26T14:01:10.150Z,949.6
2019-05-26T14:04:16.462Z,949.7
2019-05-26T14:07:22.727Z,949.7
2019-05-26T14:10:28.852Z,949.6
2019-05-26T14:13:35.109Z,949.6
2019-05-26T14:16:41.321Z,949.7
2019-05-26T14:19:47.448Z,949.7
2019-05-26T14:22:53.647Z,949.7
2019-05-26T14:25:59.846Z,949.6
2019-05-26T14:29:06.002Z,949.6
2019-05-26T14:32:12.246Z,949.6
2019-05-26T14:35:18.373Z,949.6
2019-05-26T14:38:44.376Z,949.6
2019-05-26T14:41:53.408Z,949.6
2019-05-26T14:45:01.306Z,949.7
2019-05-26T14:48:09.998Z,949.6
2019-05-26T14:51:16.253Z,949.6
2019-05-26T14:54:22.418Z,949.7
2019-05-26T14:57:32.176Z,949.6
2019-05-26T15:00:38.395Z,949.6
2019-05-26T15:03:44.597Z,949.6
2019-05-26T15:06:50.834Z,949.6
2019-05-26T15:09:56.962Z,949.5
2019-05-26T15:13:03.157Z,949.6
2019-05-26T15:16:11.608Z,949.6
2019-05-26T15:19:17.827Z,949.6
2019-05-26T15:22:24.015Z,949.6
2019-05-26T15:25:30.204Z,949.6
2019-05-26T15:28:36.469Z,949.6
2019-05-26T15:31:42.677Z,949.6
2019-05-26T15:34:48.906Z,949.6
2019-05-26T15:37:55.173Z,949.6
2019-05-26T15:41:01.331Z,949.6
2019-05-26T15:44:07.468Z,949.6
2019-05-26T15:47:16.642Z,949.6
2019-05-26T15:50:22.766Z,949.5
2019-05-26T15:53:28.974Z,949.6
2019-05-26T15:56:35.121Z,949.7
2019-05-26T15:59:41.291Z,949.7
2019-05-26T16:02:47.450Z,949.6
2019-05-26T16:05:54.008Z,949.7
2019-05-26T16:09:00.195Z,949.7
2019-05-26T16:12:06.454Z,949.8
2019-05-26T16:15:12.597Z,949.7
2019-05-26T16:18:18.791Z,949.7
2019-05-26T16:21:29.461Z,949.7
2019-05-26T16:24:35.587Z,949.7
2019-05-26T16:27:41.787Z,949.7
2019-05-26T16:30:47.928Z,949.8
2019-05-26T16:33:54.220Z,949.8
2019-05-26T16:37:00.351Z,949.8
2019-05-26T16:40:06.540Z,949.9
2019-05-26T16:43:12.812Z,949.9
2019-05-26T16:46:18.984Z,949.9
2019-05-26T16:49:25.135Z,949.9
2019-05-26T16:52:31.262Z,949.9
2019-05-26T16:55:37.470Z,950
2019-05-26T16:58:43.743Z,949.9
2019-05-26T17:01:50.011Z,950
2019-05-26T17:04:56.502Z,950
2019-05-26T17:08:02.640Z,950
2019-05-26T17:11:08.795Z,950
2019-05-26T17:14:14.921Z,950.1
2019-05-26T17:17:21.146Z,950.1
2019-05-26T17:20:27.263Z,950.1
2019-05-26T17:23:33.458Z,950.2
2019-05-26T17:26:39.637Z,950.1
2019-05-26T17:29:45.787Z,950.2
2019-05-26T17:32:52.079Z,950.2
2019-05-26T17:35:58.218Z,950.2
2019-05-26T17:39:04.376Z,950.2
2019-05-26T17:42:10.579Z,950.2
2019-05-26T17:45:16.812Z,950.2
2019-05-26T17:48:22.998Z,950.2
2019-05-26T17:51:29.146Z,950.2
2019-05-26T17:54:35.295Z,950.2
2019-05-26T17:57:41.416Z,950.2
2019-05-26T18:00:47.636Z,950.2
2019-05-26T18:03:53.798Z,950.2
2019-05-26T18:06:59.945Z,950.2
2019-05-26T18:10:06.126Z,950.2
2019-05-26T18:13:12.289Z,950.3
2019-05-26T18:16:18.750Z,950.3
2019-05-26T18:19:24.987Z,950.3
2019-05-26T18:22:35.415Z,950.4
2019-05-26T18:25:41.658Z,950.5
2019-05-26T18:28:47.823Z,950.5
2019-05-26T18:31:54.140Z,950.6
2019-05-26T18:35:01.018Z,950.6
2019-05-26T18:38:07.207Z,950.7
2019-05-26T18:41:13.503Z,950.7
2019-05-26T18:44:19.840Z,950.7
2019-05-26T18:47:25.918Z,950.8
2019-05-26T18:50:32.061Z,950.7
2019-05-26T18:53:38.282Z,950.7
2019-05-26T18:56:44.389Z,950.7
2019-05-26T18:59:50.644Z,950.7
2019-05-26T19:02:56.857Z,950.7
2019-05-26T19:06:03.251Z,950.7
2019-05-26T19:09:09.344Z,950.8
2019-05-26T19:12:15.601Z,950.8
2019-05-26T19:15:21.775Z,950.9
2019-05-26T19:18:27.986Z,950.8
2019-05-26T19:21:34.115Z,950.9
2019-05-26T19:24:40.326Z,951
2019-05-26T19:27:46.435Z,951
2019-05-26T19:30:52.643Z,951
2019-05-26T19:33:58.909Z,951
2019-05-26T19:37:05.182Z,951
2019-05-26T19:40:11.345Z,951
2019-05-26T19:43:17.463Z,951
2019-05-26T19:46:23.672Z,951
2019-05-26T19:49:29.937Z,951
2019-05-26T19:52:36.056Z,951
2019-05-26T19:55:42.270Z,951
2019-05-26T19:58:48.530Z,951
2019-05-26T20:01:54.799Z,951
2019-05-26T20:05:25.355Z,950.9
2019-05-26T20:08:31.600Z,950.8
2019-05-26T20:11:37.812Z,950.8
2019-05-26T20:14:44.051Z,950.7
2019-05-26T20:17:52.758Z,950.7
2019-05-26T20:20:58.968Z,950.8
2019-05-26T20:24:05.184Z,950.7
2019-05-26T20:27:11.322Z,950.8
2019-05-26T20:30:21.049Z,950.9
2019-05-26T20:33:31.973Z,950.9
2019-05-26T20:36:41.031Z,950.9
2019-05-26T20:39:47.496Z,950.9
2019-05-26T20:42:53.665Z,950.9
2019-05-26T20:46:00.033Z,950.9
2019-05-26T20:49:06.293Z,951
2019-05-26T20:52:12.494Z,951.1
2019-05-26T20:55:19.263Z,951.1
2019-05-26T20:58:25.391Z,951.1
2019-05-26T21:01:31.757Z,951.1
2019-05-26T21:04:38.233Z,951.1
2019-05-26T21:07:44.575Z,951.1
2019-05-26T21:10:50.877Z,951.1
2019-05-26T21:13:56.978Z,951.1
2019-05-26T21:17:03.198Z,951.1
2019-05-26T21:20:09.392Z,951.2
2019-05-26T21:23:15.578Z,951.3
2019-05-26T21:26:21.837Z,951.2
2019-05-26T21:29:30.974Z,951.1
2019-05-26T21:32:37.280Z,951.1
2019-05-26T21:35:43.496Z,951.1
2019-05-26T21:38:49.720Z,951.1
2019-05-26T21:41:55.834Z,951
2019-05-26T21:45:04.503Z,951
2019-05-26T21:48:10.803Z,951
2019-05-26T21:51:17.080Z,951.1
2019-05-26T21:54:23.342Z,951.1
2019-05-26T21:57:29.667Z,951
2019-05-26T22:00:35.800Z,950.9
2019-05-26T22:03:42.098Z,950.9
2019-05-26T22:06:48.503Z,951
2019-05-26T22:09:54.598Z,951
2019-05-26T22:13:00.794Z,951
2019-05-26T22:16:06.957Z,951
2019-05-26T22:19:13.148Z,951
2019-05-26T22:22:19.389Z,951
2019-05-26T22:25:25.657Z,951
2019-05-26T22:28:31.783Z,951
2019-05-26T22:31:37.985Z,951.1
2019-05-26T22:34:44.110Z,951
2019-05-26T22:37:50.377Z,951
2019-05-26T22:40:56.582Z,951.1
2019-05-26T22:44:02.703Z,951.1
2019-05-26T22:47:08.913Z,950.9
2019-05-26T22:50:15.074Z,950.8
2019-05-26T22:53:21.277Z,950.8
2019-05-26T22:56:27.504Z,950.8
2019-05-26T22:59:33.713Z,950.7
2019-05-26T23:02:40.137Z,950.8
2019-05-26T23:05:46.838Z,950.8
2019-05-26T23:08:52.950Z,950.9
2019-05-26T23:11:59.153Z,950.9
2019-05-26T23:15:05.306Z,951
2019-05-26T23:18:11.429Z,951
2019-05-26T23:21:17.638Z,951
2019-05-26T23:24:23.905Z,950.9
2019-05-26T23:27:30.169Z,950.9
2019-05-26T23:30:36.478Z,951
2019-05-26T23:33:42.700Z,951
2019-05-26T23:36:48.967Z,951
2019-05-26T23:39:55.090Z,950.9
2019-05-26T23:43:01.295Z,950.9
2019-05-26T23:46:07.570Z,950.9
2019-05-26T23:49:13.786Z,950.9
2019-05-26T23:52:20.818Z,950.9
2019-05-26T23:55:27.078Z,950.8
2019-05-26T23:58:33.270Z,950.9
